sensor_id;sensor_type;location;lat;lon;timestamp;P1;durP1;ratioP1;P2;durP2;ratioP2
15155;SDS011;7678;50.058;8.306;2023-04-26T00:00:14;6.20;;;3.40;;
15155;SDS011;7678;50.058;8.306;2023-04-26T00:02:43;6.50;;;3.00;;
15155;SDS011;7678;50.058;8.306;2023-04-26T00:05:11;5.10;;;3.00;;
15155;SDS011;7678;50.058;8.306;2023-04-26T00:07:40;7.30;;;3.37;;
15155;SDS011;7678;50.058;8.306;2023-04-26T00:10:09;7.50;;;3.47;;
15155;SDS011;7678;50.058;8.306;2023-04-26T00:12:37;6.30;;;2.70;;
15155;SDS011;7678;50.058;8.306;2023-04-26T00:15:06;7.23;;;3.27;;
15155;SDS011;7678;50.058;8.306;2023-04-26T00:17:37;9.57;;;3.33;;
15155;SDS011;7678;50.058;8.306;2023-04-26T00:20:05;7.13;;;2.93;;
15155;SDS011;7678;50.058;8.306;2023-04-26T00:22:35;5.43;;;2.80;;
15155;SDS011;7678;50.058;8.306;2023-04-26T00:25:06;6.27;;;3.13;;
15155;SDS011;7678;50.058;8.306;2023-04-26T00:27:34;7.60;;;3.20;;
15155;SDS011;7678;50.058;8.306;2023-04-26T00:30:02;5.93;;;3.47;;
15155;SDS011;7678;50.058;8.306;2023-04-26T00:32:33;8.33;;;2.93;;
15155;SDS011;7678;50.058;8.306;2023-04-26T00:35:03;6.77;;;3.53;;
15155;SDS011;7678;50.058;8.306;2023-04-26T00:37:32;5.70;;;3.20;;
15155;SDS011;7678;50.058;8.306;2023-04-26T00:40:03;5.10;;;3.13;;
15155;SDS011;7678;50.058;8.306;2023-04-26T00:42:32;7.30;;;3.20;;
15155;SDS011;7678;50.058;8.306;2023-04-26T00:45:00;5.83;;;3.23;;
15155;SDS011;7678;50.058;8.306;2023-04-26T00:47:41;8.30;;;3.77;;
15155;SDS011;7678;50.058;8.306;2023-04-26T00:50:11;4.20;;;2.90;;
15155;SDS011;7678;50.058;8.306;2023-04-26T00:52:39;8.77;;;3.73;;
15155;SDS011;7678;50.058;8.306;2023-04-26T00:55:07;5.33;;;2.87;;
15155;SDS011;7678;50.058;8.306;2023-04-26T00:57:36;5.93;;;2.90;;
15155;SDS011;7678;50.058;8.306;2023-04-26T01:00:06;5.53;;;3.00;;
15155;SDS011;7678;50.058;8.306;2023-04-26T01:02:34;8.47;;;3.53;;
15155;SDS011;7678;50.058;8.306;2023-04-26T01:05:06;3.67;;;3.10;;
15155;SDS011;7678;50.058;8.306;2023-04-26T01:07:38;5.60;;;3.33;;
15155;SDS011;7678;50.058;8.306;2023-04-26T01:10:07;4.97;;;3.23;;
15155;SDS011;7678;50.058;8.306;2023-04-26T01:12:35;6.47;;;3.10;;
15155;SDS011;7678;50.058;8.306;2023-04-26T01:15:05;5.27;;;3.00;;
15155;SDS011;7678;50.058;8.306;2023-04-26T01:17:33;6.17;;;3.27;;
15155;SDS011;7678;50.058;8.306;2023-04-26T01:20:03;7.43;;;3.13;;
15155;SDS011;7678;50.058;8.306;2023-04-26T01:22:35;5.03;;;3.20;;
15155;SDS011;7678;50.058;8.306;2023-04-26T01:25:03;4.90;;;2.87;;
15155;SDS011;7678;50.058;8.306;2023-04-26T01:27:34;4.27;;;2.70;;
15155;SDS011;7678;50.058;8.306;2023-04-26T01:30:03;6.60;;;3.17;;
15155;SDS011;7678;50.058;8.306;2023-04-26T01:32:31;4.07;;;2.97;;
15155;SDS011;7678;50.058;8.306;2023-04-26T01:35:00;6.40;;;3.37;;
15155;SDS011;7678;50.058;8.306;2023-04-26T01:37:28;4.47;;;3.17;;
15155;SDS011;7678;50.058;8.306;2023-04-26T01:40:04;6.10;;;3.33;;
15155;SDS011;7678;50.058;8.306;2023-04-26T01:42:34;4.93;;;3.23;;
15155;SDS011;7678;50.058;8.306;2023-04-26T01:45:03;7.00;;;3.10;;
15155;SDS011;7678;50.058;8.306;2023-04-26T01:47:36;5.50;;;3.40;;
15155;SDS011;7678;50.058;8.306;2023-04-26T01:50:05;7.80;;;3.57;;
15155;SDS011;7678;50.058;8.306;2023-04-26T01:52:34;6.50;;;3.17;;
15155;SDS011;7678;50.058;8.306;2023-04-26T01:55:06;6.93;;;3.03;;
15155;SDS011;7678;50.058;8.306;2023-04-26T01:57:34;10.53;;;3.90;;
15155;SDS011;7678;50.058;8.306;2023-04-26T02:00:04;5.97;;;3.33;;
15155;SDS011;7678;50.058;8.306;2023-04-26T02:02:33;5.87;;;2.93;;
15155;SDS011;7678;50.058;8.306;2023-04-26T02:05:02;5.80;;;3.30;;
15155;SDS011;7678;50.058;8.306;2023-04-26T02:07:30;5.97;;;3.47;;
15155;SDS011;7678;50.058;8.306;2023-04-26T02:09:58;6.93;;;3.27;;
15155;SDS011;7678;50.058;8.306;2023-04-26T02:12:27;8.77;;;3.27;;
15155;SDS011;7678;50.058;8.306;2023-04-26T02:14:55;6.13;;;3.00;;
15155;SDS011;7678;50.058;8.306;2023-04-26T02:17:23;6.40;;;3.40;;
15155;SDS011;7678;50.058;8.306;2023-04-26T02:19:52;6.83;;;3.63;;
15155;SDS011;7678;50.058;8.306;2023-04-26T02:22:21;5.77;;;3.07;;
15155;SDS011;7678;50.058;8.306;2023-04-26T02:24:50;3.87;;;3.20;;
15155;SDS011;7678;50.058;8.306;2023-04-26T02:27:18;7.47;;;3.33;;
15155;SDS011;7678;50.058;8.306;2023-04-26T02:29:47;4.93;;;3.07;;
15155;SDS011;7678;50.058;8.306;2023-04-26T02:32:15;6.60;;;3.13;;
15155;SDS011;7678;50.058;8.306;2023-04-26T02:34:43;6.07;;;3.43;;
15155;SDS011;7678;50.058;8.306;2023-04-26T02:37:12;8.63;;;3.90;;
15155;SDS011;7678;50.058;8.306;2023-04-26T02:39:40;5.97;;;3.10;;
15155;SDS011;7678;50.058;8.306;2023-04-26T02:42:08;5.93;;;3.00;;
15155;SDS011;7678;50.058;8.306;2023-04-26T02:44:36;5.93;;;3.40;;
15155;SDS011;7678;50.058;8.306;2023-04-26T02:47:06;7.70;;;3.50;;
15155;SDS011;7678;50.058;8.306;2023-04-26T02:49:34;7.07;;;3.23;;
15155;SDS011;7678;50.058;8.306;2023-04-26T02:52:03;6.50;;;3.43;;
15155;SDS011;7678;50.058;8.306;2023-04-26T02:54:33;5.27;;;3.20;;
15155;SDS011;7678;50.058;8.306;2023-04-26T02:57:01;6.93;;;3.20;;
15155;SDS011;7678;50.058;8.306;2023-04-26T02:59:29;7.27;;;3.57;;
15155;SDS011;7678;50.058;8.306;2023-04-26T03:01:58;6.27;;;2.80;;
15155;SDS011;7678;50.058;8.306;2023-04-26T03:04:28;6.00;;;3.40;;
15155;SDS011;7678;50.058;8.306;2023-04-26T03:06:59;7.73;;;3.30;;
15155;SDS011;7678;50.058;8.306;2023-04-26T03:09:32;9.83;;;3.43;;
15155;SDS011;7678;50.058;8.306;2023-04-26T03:12:04;5.37;;;3.10;;
15155;SDS011;7678;50.058;8.306;2023-04-26T03:14:33;6.67;;;3.33;;
15155;SDS011;7678;50.058;8.306;2023-04-26T03:17:01;5.77;;;3.20;;
15155;SDS011;7678;50.058;8.306;2023-04-26T03:19:31;5.90;;;3.10;;
15155;SDS011;7678;50.058;8.306;2023-04-26T03:22:00;6.77;;;3.20;;
15155;SDS011;7678;50.058;8.306;2023-04-26T03:24:28;7.87;;;3.43;;
15155;SDS011;7678;50.058;8.306;2023-04-26T03:26:56;4.63;;;3.03;;
15155;SDS011;7678;50.058;8.306;2023-04-26T03:29:25;8.03;;;3.47;;
15155;SDS011;7678;50.058;8.306;2023-04-26T03:31:53;6.07;;;3.10;;
15155;SDS011;7678;50.058;8.306;2023-04-26T03:34:23;8.37;;;3.60;;
15155;SDS011;7678;50.058;8.306;2023-04-26T03:36:53;8.70;;;3.60;;
15155;SDS011;7678;50.058;8.306;2023-04-26T03:39:22;12.47;;;3.07;;
15155;SDS011;7678;50.058;8.306;2023-04-26T03:41:49;6.23;;;3.40;;
15155;SDS011;7678;50.058;8.306;2023-04-26T03:44:20;7.03;;;3.10;;
15155;SDS011;7678;50.058;8.306;2023-04-26T03:46:48;4.80;;;2.97;;
15155;SDS011;7678;50.058;8.306;2023-04-26T03:49:16;7.13;;;3.43;;
15155;SDS011;7678;50.058;8.306;2023-04-26T03:51:44;8.43;;;4.03;;
15155;SDS011;7678;50.058;8.306;2023-04-26T03:54:13;6.03;;;3.40;;
15155;SDS011;7678;50.058;8.306;2023-04-26T03:56:41;7.33;;;3.30;;
15155;SDS011;7678;50.058;8.306;2023-04-26T03:59:09;5.23;;;3.17;;
15155;SDS011;7678;50.058;8.306;2023-04-26T04:01:38;7.80;;;3.57;;
15155;SDS011;7678;50.058;8.306;2023-04-26T04:04:06;9.53;;;3.13;;
15155;SDS011;7678;50.058;8.306;2023-04-26T04:06:35;9.67;;;3.93;;
15155;SDS011;7678;50.058;8.306;2023-04-26T04:09:06;8.77;;;3.50;;
15155;SDS011;7678;50.058;8.306;2023-04-26T04:11:35;5.50;;;3.30;;
15155;SDS011;7678;50.058;8.306;2023-04-26T04:14:03;7.13;;;3.97;;
15155;SDS011;7678;50.058;8.306;2023-04-26T04:16:40;6.00;;;3.43;;
15155;SDS011;7678;50.058;8.306;2023-04-26T04:19:08;5.87;;;3.70;;
15155;SDS011;7678;50.058;8.306;2023-04-26T04:21:36;5.47;;;3.60;;
15155;SDS011;7678;50.058;8.306;2023-04-26T04:24:05;8.77;;;4.10;;
15155;SDS011;7678;50.058;8.306;2023-04-26T04:26:33;6.70;;;3.60;;
15155;SDS011;7678;50.058;8.306;2023-04-26T04:29:03;7.20;;;4.00;;
15155;SDS011;7678;50.058;8.306;2023-04-26T04:31:34;10.43;;;4.40;;
15155;SDS011;7678;50.058;8.306;2023-04-26T04:34:02;12.27;;;5.03;;
15155;SDS011;7678;50.058;8.306;2023-04-26T04:36:30;8.57;;;4.37;;
15155;SDS011;7678;50.058;8.306;2023-04-26T04:38:58;10.60;;;5.23;;
15155;SDS011;7678;50.058;8.306;2023-04-26T04:41:28;12.53;;;5.17;;
15155;SDS011;7678;50.058;8.306;2023-04-26T04:44:01;10.43;;;4.90;;
15155;SDS011;7678;50.058;8.306;2023-04-26T04:46:29;6.87;;;4.80;;
15155;SDS011;7678;50.058;8.306;2023-04-26T04:48:57;8.57;;;4.37;;
15155;SDS011;7678;50.058;8.306;2023-04-26T04:51:26;15.03;;;4.93;;
15155;SDS011;7678;50.058;8.306;2023-04-26T04:53:56;8.13;;;4.83;;
15155;SDS011;7678;50.058;8.306;2023-04-26T04:56:24;8.20;;;4.20;;
15155;SDS011;7678;50.058;8.306;2023-04-26T04:58:58;9.27;;;5.10;;
15155;SDS011;7678;50.058;8.306;2023-04-26T05:01:27;7.90;;;3.77;;
15155;SDS011;7678;50.058;8.306;2023-04-26T05:03:58;9.83;;;4.63;;
15155;SDS011;7678;50.058;8.306;2023-04-26T05:06:27;8.30;;;4.53;;
15155;SDS011;7678;50.058;8.306;2023-04-26T05:08:57;7.97;;;4.30;;
15155;SDS011;7678;50.058;8.306;2023-04-26T05:11:25;8.53;;;4.83;;
15155;SDS011;7678;50.058;8.306;2023-04-26T05:13:53;11.77;;;3.97;;
15155;SDS011;7678;50.058;8.306;2023-04-26T05:16:23;7.90;;;4.40;;
15155;SDS011;7678;50.058;8.306;2023-04-26T05:18:52;10.77;;;4.33;;
15155;SDS011;7678;50.058;8.306;2023-04-26T05:21:21;9.33;;;4.00;;
15155;SDS011;7678;50.058;8.306;2023-04-26T05:23:49;10.63;;;3.97;;
15155;SDS011;7678;50.058;8.306;2023-04-26T05:26:17;9.73;;;4.07;;
15155;SDS011;7678;50.058;8.306;2023-04-26T05:28:45;6.73;;;4.07;;
15155;SDS011;7678;50.058;8.306;2023-04-26T05:31:14;9.90;;;4.13;;
15155;SDS011;7678;50.058;8.306;2023-04-26T05:33:42;9.23;;;4.33;;
15155;SDS011;7678;50.058;8.306;2023-04-26T05:36:12;12.37;;;4.43;;
15155;SDS011;7678;50.058;8.306;2023-04-26T05:38:40;10.57;;;4.47;;
15155;SDS011;7678;50.058;8.306;2023-04-26T05:41:08;6.23;;;3.67;;
15155;SDS011;7678;50.058;8.306;2023-04-26T05:43:36;7.27;;;3.40;;
15155;SDS011;7678;50.058;8.306;2023-04-26T05:46:04;7.70;;;3.10;;
15155;SDS011;7678;50.058;8.306;2023-04-26T05:48:32;8.33;;;3.97;;
15155;SDS011;7678;50.058;8.306;2023-04-26T05:51:01;7.27;;;3.97;;
15155;SDS011;7678;50.058;8.306;2023-04-26T05:53:30;6.00;;;3.20;;
15155;SDS011;7678;50.058;8.306;2023-04-26T05:55:59;7.87;;;3.17;;
15155;SDS011;7678;50.058;8.306;2023-04-26T05:58:27;9.47;;;3.63;;
15155;SDS011;7678;50.058;8.306;2023-04-26T06:00:55;6.20;;;3.33;;
15155;SDS011;7678;50.058;8.306;2023-04-26T06:03:24;7.63;;;3.00;;
15155;SDS011;7678;50.058;8.306;2023-04-26T06:05:52;6.87;;;3.10;;
15155;SDS011;7678;50.058;8.306;2023-04-26T06:08:21;8.10;;;2.90;;
15155;SDS011;7678;50.058;8.306;2023-04-26T06:10:50;8.87;;;3.20;;
15155;SDS011;7678;50.058;8.306;2023-04-26T06:13:18;7.33;;;3.40;;
15155;SDS011;7678;50.058;8.306;2023-04-26T06:15:46;7.30;;;3.20;;
15155;SDS011;7678;50.058;8.306;2023-04-26T06:18:14;6.97;;;2.83;;
15155;SDS011;7678;50.058;8.306;2023-04-26T06:20:42;8.10;;;3.03;;
15155;SDS011;7678;50.058;8.306;2023-04-26T06:23:11;8.90;;;3.27;;
15155;SDS011;7678;50.058;8.306;2023-04-26T06:25:39;10.47;;;3.60;;
15155;SDS011;7678;50.058;8.306;2023-04-26T06:28:11;9.00;;;2.90;;
15155;SDS011;7678;50.058;8.306;2023-04-26T06:30:39;5.93;;;2.50;;
15155;SDS011;7678;50.058;8.306;2023-04-26T06:33:08;7.93;;;3.23;;
15155;SDS011;7678;50.058;8.306;2023-04-26T06:35:38;7.97;;;2.90;;
15155;SDS011;7678;50.058;8.306;2023-04-26T06:38:06;7.73;;;3.00;;
15155;SDS011;7678;50.058;8.306;2023-04-26T06:40:34;11.60;;;3.70;;
15155;SDS011;7678;50.058;8.306;2023-04-26T06:43:03;6.23;;;2.77;;
15155;SDS011;7678;50.058;8.306;2023-04-26T06:45:32;8.27;;;2.90;;
15155;SDS011;7678;50.058;8.306;2023-04-26T06:48:00;7.70;;;2.67;;
15155;SDS011;7678;50.058;8.306;2023-04-26T06:50:30;6.67;;;2.67;;
15155;SDS011;7678;50.058;8.306;2023-04-26T06:52:58;7.63;;;3.73;;
15155;SDS011;7678;50.058;8.306;2023-04-26T06:55:26;5.83;;;2.90;;
15155;SDS011;7678;50.058;8.306;2023-04-26T06:57:55;6.73;;;2.57;;
15155;SDS011;7678;50.058;8.306;2023-04-26T07:00:23;4.60;;;2.50;;
15155;SDS011;7678;50.058;8.306;2023-04-26T07:02:52;8.00;;;2.30;;
15155;SDS011;7678;50.058;8.306;2023-04-26T07:05:20;5.13;;;2.47;;
15155;SDS011;7678;50.058;8.306;2023-04-26T07:07:49;8.07;;;2.93;;
15155;SDS011;7678;50.058;8.306;2023-04-26T07:10:19;5.83;;;2.87;;
15155;SDS011;7678;50.058;8.306;2023-04-26T07:12:47;5.77;;;2.27;;
15155;SDS011;7678;50.058;8.306;2023-04-26T07:15:15;7.87;;;2.33;;
15155;SDS011;7678;50.058;8.306;2023-04-26T07:17:43;8.63;;;2.40;;
15155;SDS011;7678;50.058;8.306;2023-04-26T07:20:12;9.97;;;2.63;;
15155;SDS011;7678;50.058;8.306;2023-04-26T07:22:44;5.43;;;2.03;;
15155;SDS011;7678;50.058;8.306;2023-04-26T07:25:13;4.07;;;2.10;;
15155;SDS011;7678;50.058;8.306;2023-04-26T07:27:42;7.67;;;2.40;;
15155;SDS011;7678;50.058;8.306;2023-04-26T07:30:17;9.33;;;2.80;;
15155;SDS011;7678;50.058;8.306;2023-04-26T07:32:46;6.03;;;2.63;;
15155;SDS011;7678;50.058;8.306;2023-04-26T07:35:17;4.30;;;2.33;;
15155;SDS011;7678;50.058;8.306;2023-04-26T07:37:45;7.73;;;2.23;;
15155;SDS011;7678;50.058;8.306;2023-04-26T07:40:13;8.77;;;2.70;;
15155;SDS011;7678;50.058;8.306;2023-04-26T07:42:44;10.20;;;3.10;;
15155;SDS011;7678;50.058;8.306;2023-04-26T07:45:12;7.00;;;2.97;;
15155;SDS011;7678;50.058;8.306;2023-04-26T07:47:40;10.43;;;2.93;;
15155;SDS011;7678;50.058;8.306;2023-04-26T07:50:08;14.40;;;5.27;;
15155;SDS011;7678;50.058;8.306;2023-04-26T07:52:38;13.60;;;3.70;;
15155;SDS011;7678;50.058;8.306;2023-04-26T07:55:08;9.27;;;3.70;;
15155;SDS011;7678;50.058;8.306;2023-04-26T07:57:37;8.07;;;2.87;;
15155;SDS011;7678;50.058;8.306;2023-04-26T08:00:05;7.87;;;2.90;;
15155;SDS011;7678;50.058;8.306;2023-04-26T08:02:35;8.37;;;2.90;;
15155;SDS011;7678;50.058;8.306;2023-04-26T08:05:08;6.03;;;2.80;;
15155;SDS011;7678;50.058;8.306;2023-04-26T08:07:38;8.60;;;2.50;;
15155;SDS011;7678;50.058;8.306;2023-04-26T08:10:06;6.47;;;2.23;;
15155;SDS011;7678;50.058;8.306;2023-04-26T08:12:35;4.97;;;2.17;;
15155;SDS011;7678;50.058;8.306;2023-04-26T08:15:04;5.17;;;2.50;;
15155;SDS011;7678;50.058;8.306;2023-04-26T08:17:33;7.17;;;2.33;;
15155;SDS011;7678;50.058;8.306;2023-04-26T08:20:01;9.23;;;2.67;;
15155;SDS011;7678;50.058;8.306;2023-04-26T08:22:31;17.97;;;3.23;;
15155;SDS011;7678;50.058;8.306;2023-04-26T08:25:00;7.70;;;3.03;;
15155;SDS011;7678;50.058;8.306;2023-04-26T08:27:29;5.20;;;3.27;;
15155;SDS011;7678;50.058;8.306;2023-04-26T08:29:59;9.87;;;2.87;;
15155;SDS011;7678;50.058;8.306;2023-04-26T08:32:27;4.83;;;2.13;;
15155;SDS011;7678;50.058;8.306;2023-04-26T08:34:55;6.30;;;2.10;;
15155;SDS011;7678;50.058;8.306;2023-04-26T08:37:23;5.20;;;1.93;;
15155;SDS011;7678;50.058;8.306;2023-04-26T08:39:54;6.93;;;2.10;;
15155;SDS011;7678;50.058;8.306;2023-04-26T08:42:25;6.47;;;2.40;;
15155;SDS011;7678;50.058;8.306;2023-04-26T08:44:54;3.73;;;2.03;;
15155;SDS011;7678;50.058;8.306;2023-04-26T08:47:27;5.20;;;2.07;;
15155;SDS011;7678;50.058;8.306;2023-04-26T08:49:59;7.53;;;2.60;;
15155;SDS011;7678;50.058;8.306;2023-04-26T08:52:30;7.23;;;2.10;;
15155;SDS011;7678;50.058;8.306;2023-04-26T08:54:59;4.67;;;2.30;;
15155;SDS011;7678;50.058;8.306;2023-04-26T08:57:28;9.43;;;2.27;;
15155;SDS011;7678;50.058;8.306;2023-04-26T08:59:58;8.17;;;3.17;;
15155;SDS011;7678;50.058;8.306;2023-04-26T09:02:30;7.77;;;2.40;;
15155;SDS011;7678;50.058;8.306;2023-04-26T09:04:59;4.33;;;2.40;;
15155;SDS011;7678;50.058;8.306;2023-04-26T09:07:29;4.80;;;2.23;;
15155;SDS011;7678;50.058;8.306;2023-04-26T09:09:59;6.67;;;2.30;;
15155;SDS011;7678;50.058;8.306;2023-04-26T09:12:28;6.00;;;2.37;;
15155;SDS011;7678;50.058;8.306;2023-04-26T09:14:56;8.70;;;2.70;;
15155;SDS011;7678;50.058;8.306;2023-04-26T09:17:27;6.93;;;2.40;;
15155;SDS011;7678;50.058;8.306;2023-04-26T09:19:57;6.90;;;2.93;;
15155;SDS011;7678;50.058;8.306;2023-04-26T09:22:26;8.87;;;2.73;;
15155;SDS011;7678;50.058;8.306;2023-04-26T09:24:58;9.33;;;2.50;;
15155;SDS011;7678;50.058;8.306;2023-04-26T09:27:34;7.90;;;2.60;;
15155;SDS011;7678;50.058;8.306;2023-04-26T09:30:05;8.17;;;2.33;;
15155;SDS011;7678;50.058;8.306;2023-04-26T09:35:28;9.53;;;2.63;;
15155;SDS011;7678;50.058;8.306;2023-04-26T09:37:58;11.73;;;2.87;;
15155;SDS011;7678;50.058;8.306;2023-04-26T09:40:38;7.43;;;2.67;;
15155;SDS011;7678;50.058;8.306;2023-04-26T09:43:09;4.60;;;2.40;;
15155;SDS011;7678;50.058;8.306;2023-04-26T09:45:47;5.83;;;2.43;;
15155;SDS011;7678;50.058;8.306;2023-04-26T09:48:17;5.77;;;2.10;;
15155;SDS011;7678;50.058;8.306;2023-04-26T09:50:48;5.70;;;2.30;;
15155;SDS011;7678;50.058;8.306;2023-04-26T09:53:24;9.70;;;2.67;;
15155;SDS011;7678;50.058;8.306;2023-04-26T09:55:57;11.57;;;2.77;;
15155;SDS011;7678;50.058;8.306;2023-04-26T09:58:35;8.40;;;2.67;;
15155;SDS011;7678;50.058;8.306;2023-04-26T10:01:04;8.00;;;2.33;;
15155;SDS011;7678;50.058;8.306;2023-04-26T10:03:33;6.20;;;2.57;;
15155;SDS011;7678;50.058;8.306;2023-04-26T10:06:03;9.07;;;2.60;;
15155;SDS011;7678;50.058;8.306;2023-04-26T10:08:31;4.97;;;2.60;;
15155;SDS011;7678;50.058;8.306;2023-04-26T10:11:00;6.83;;;2.20;;
15155;SDS011;7678;50.058;8.306;2023-04-26T10:13:33;7.60;;;2.53;;
15155;SDS011;7678;50.058;8.306;2023-04-26T10:16:02;7.87;;;2.53;;
15155;SDS011;7678;50.058;8.306;2023-04-26T10:18:32;7.53;;;2.13;;
15155;SDS011;7678;50.058;8.306;2023-04-26T10:21:03;6.47;;;2.60;;
15155;SDS011;7678;50.058;8.306;2023-04-26T10:23:35;8.23;;;2.50;;
15155;SDS011;7678;50.058;8.306;2023-04-26T10:26:04;5.57;;;2.50;;
15155;SDS011;7678;50.058;8.306;2023-04-26T10:34:29;5.27;;;2.27;;
15155;SDS011;7678;50.058;8.306;2023-04-26T10:37:08;6.43;;;3.00;;
15155;SDS011;7678;50.058;8.306;2023-04-26T10:39:38;6.03;;;2.83;;
15155;SDS011;7678;50.058;8.306;2023-04-26T10:42:17;10.93;;;2.40;;
15155;SDS011;7678;50.058;8.306;2023-04-26T10:44:53;5.60;;;2.00;;
15155;SDS011;7678;50.058;8.306;2023-04-26T10:47:23;10.37;;;2.13;;
15155;SDS011;7678;50.058;8.306;2023-04-26T10:50:00;8.50;;;2.30;;
15155;SDS011;7678;50.058;8.306;2023-04-26T10:52:33;11.63;;;2.27;;
15155;SDS011;7678;50.058;8.306;2023-04-26T10:55:05;6.80;;;2.20;;
15155;SDS011;7678;50.058;8.306;2023-04-26T10:57:45;17.70;;;2.70;;
15155;SDS011;7678;50.058;8.306;2023-04-26T11:00:20;6.40;;;2.10;;
15155;SDS011;7678;50.058;8.306;2023-04-26T11:03:04;7.93;;;2.00;;
15155;SDS011;7678;50.058;8.306;2023-04-26T11:05:35;6.50;;;2.33;;
15155;SDS011;7678;50.058;8.306;2023-04-26T11:08:13;6.00;;;2.10;;
15155;SDS011;7678;50.058;8.306;2023-04-26T11:10:44;4.30;;;1.80;;
15155;SDS011;7678;50.058;8.306;2023-04-26T11:13:17;4.70;;;2.13;;
15155;SDS011;7678;50.058;8.306;2023-04-26T11:15:59;6.63;;;2.03;;
15155;SDS011;7678;50.058;8.306;2023-04-26T11:18:29;10.13;;;2.50;;
15155;SDS011;7678;50.058;8.306;2023-04-26T11:20:58;7.83;;;2.20;;
15155;SDS011;7678;50.058;8.306;2023-04-26T11:23:27;5.73;;;2.27;;
15155;SDS011;7678;50.058;8.306;2023-04-26T11:25:57;10.20;;;2.43;;
15155;SDS011;7678;50.058;8.306;2023-04-26T11:28:25;7.87;;;2.30;;
15155;SDS011;7678;50.058;8.306;2023-04-26T11:30:55;3.37;;;1.80;;
15155;SDS011;7678;50.058;8.306;2023-04-26T11:33:24;7.13;;;2.17;;
15155;SDS011;7678;50.058;8.306;2023-04-26T11:35:53;6.43;;;2.00;;
15155;SDS011;7678;50.058;8.306;2023-04-26T11:38:22;10.00;;;2.67;;
15155;SDS011;7678;50.058;8.306;2023-04-26T11:40:52;7.10;;;2.23;;
15155;SDS011;7678;50.058;8.306;2023-04-26T11:43:28;8.63;;;2.30;;
15155;SDS011;7678;50.058;8.306;2023-04-26T11:45:58;8.80;;;2.33;;
15155;SDS011;7678;50.058;8.306;2023-04-26T11:48:27;6.50;;;1.93;;
15155;SDS011;7678;50.058;8.306;2023-04-26T11:50:56;6.63;;;2.50;;
15155;SDS011;7678;50.058;8.306;2023-04-26T11:53:33;6.40;;;2.13;;
15155;SDS011;7678;50.058;8.306;2023-04-26T11:56:05;6.10;;;2.43;;
15155;SDS011;7678;50.058;8.306;2023-04-26T11:58:44;5.80;;;2.40;;
15155;SDS011;7678;50.058;8.306;2023-04-26T12:01:20;5.53;;;1.97;;
15155;SDS011;7678;50.058;8.306;2023-04-26T12:03:49;6.93;;;1.80;;
15155;SDS011;7678;50.058;8.306;2023-04-26T12:06:19;4.87;;;2.07;;
15155;SDS011;7678;50.058;8.306;2023-04-26T12:08:53;4.67;;;2.10;;
15155;SDS011;7678;50.058;8.306;2023-04-26T12:11:23;6.17;;;2.00;;
15155;SDS011;7678;50.058;8.306;2023-04-26T12:13:52;6.07;;;2.13;;
15155;SDS011;7678;50.058;8.306;2023-04-26T12:16:24;6.17;;;2.30;;
15155;SDS011;7678;50.058;8.306;2023-04-26T12:18:55;5.80;;;2.00;;
15155;SDS011;7678;50.058;8.306;2023-04-26T12:21:23;6.00;;;1.80;;
15155;SDS011;7678;50.058;8.306;2023-04-26T12:23:56;4.77;;;1.70;;
15155;SDS011;7678;50.058;8.306;2023-04-26T12:26:38;9.90;;;2.00;;
15155;SDS011;7678;50.058;8.306;2023-04-26T12:29:11;4.60;;;1.97;;
15155;SDS011;7678;50.058;8.306;2023-04-26T12:31:43;6.50;;;2.03;;
15155;SDS011;7678;50.058;8.306;2023-04-26T12:34:11;5.30;;;2.10;;
15155;SDS011;7678;50.058;8.306;2023-04-26T12:36:41;5.27;;;2.13;;
15155;SDS011;7678;50.058;8.306;2023-04-26T12:39:10;6.27;;;2.33;;
15155;SDS011;7678;50.058;8.306;2023-04-26T12:41:42;5.17;;;2.10;;
15155;SDS011;7678;50.058;8.306;2023-04-26T12:44:11;6.90;;;2.67;;
15155;SDS011;7678;50.058;8.306;2023-04-26T12:46:40;6.63;;;2.37;;
15155;SDS011;7678;50.058;8.306;2023-04-26T12:49:11;4.27;;;2.00;;
15155;SDS011;7678;50.058;8.306;2023-04-26T12:51:41;5.70;;;2.00;;
15155;SDS011;7678;50.058;8.306;2023-04-26T12:54:09;4.70;;;1.70;;
15155;SDS011;7678;50.058;8.306;2023-04-26T12:56:37;5.43;;;2.33;;
15155;SDS011;7678;50.058;8.306;2023-04-26T12:59:09;7.13;;;2.00;;
15155;SDS011;7678;50.058;8.306;2023-04-26T13:01:38;6.73;;;2.33;;
15155;SDS011;7678;50.058;8.306;2023-04-26T13:04:12;8.60;;;2.00;;
15155;SDS011;7678;50.058;8.306;2023-04-26T13:06:41;5.67;;;1.97;;
15155;SDS011;7678;50.058;8.306;2023-04-26T13:09:09;5.53;;;1.73;;
15155;SDS011;7678;50.058;8.306;2023-04-26T13:11:39;5.10;;;1.80;;
15155;SDS011;7678;50.058;8.306;2023-04-26T13:14:07;4.37;;;2.13;;
15155;SDS011;7678;50.058;8.306;2023-04-26T13:16:36;8.47;;;2.30;;
15155;SDS011;7678;50.058;8.306;2023-04-26T13:19:09;6.87;;;2.17;;
15155;SDS011;7678;50.058;8.306;2023-04-26T13:21:37;5.23;;;2.00;;
15155;SDS011;7678;50.058;8.306;2023-04-26T13:24:06;6.27;;;1.87;;
15155;SDS011;7678;50.058;8.306;2023-04-26T13:26:34;5.47;;;2.20;;
15155;SDS011;7678;50.058;8.306;2023-04-26T13:29:02;5.60;;;1.80;;
15155;SDS011;7678;50.058;8.306;2023-04-26T13:31:31;6.87;;;2.13;;
15155;SDS011;7678;50.058;8.306;2023-04-26T13:34:00;3.77;;;2.00;;
15155;SDS011;7678;50.058;8.306;2023-04-26T13:36:33;6.40;;;2.10;;
15155;SDS011;7678;50.058;8.306;2023-04-26T13:39:03;5.57;;;2.13;;
15155;SDS011;7678;50.058;8.306;2023-04-26T13:41:33;6.10;;;2.10;;
15155;SDS011;7678;50.058;8.306;2023-04-26T13:44:02;4.77;;;2.10;;
15155;SDS011;7678;50.058;8.306;2023-04-26T13:46:31;3.43;;;1.70;;
15155;SDS011;7678;50.058;8.306;2023-04-26T13:49:00;6.43;;;2.90;;
15155;SDS011;7678;50.058;8.306;2023-04-26T13:51:28;5.70;;;2.57;;
15155;SDS011;7678;50.058;8.306;2023-04-26T13:54:00;5.13;;;2.10;;
15155;SDS011;7678;50.058;8.306;2023-04-26T13:56:28;5.30;;;2.20;;
15155;SDS011;7678;50.058;8.306;2023-04-26T13:58:57;7.27;;;1.80;;
15155;SDS011;7678;50.058;8.306;2023-04-26T14:01:26;5.80;;;2.10;;
15155;SDS011;7678;50.058;8.306;2023-04-26T14:03:55;6.53;;;1.87;;
15155;SDS011;7678;50.058;8.306;2023-04-26T14:06:23;6.13;;;2.00;;
15155;SDS011;7678;50.058;8.306;2023-04-26T14:08:52;6.27;;;2.20;;
15155;SDS011;7678;50.058;8.306;2023-04-26T14:11:21;5.63;;;2.00;;
15155;SDS011;7678;50.058;8.306;2023-04-26T14:13:50;5.47;;;2.00;;
15155;SDS011;7678;50.058;8.306;2023-04-26T14:16:21;9.53;;;2.03;;
15155;SDS011;7678;50.058;8.306;2023-04-26T14:18:49;7.57;;;1.97;;
15155;SDS011;7678;50.058;8.306;2023-04-26T14:21:18;5.63;;;1.97;;
15155;SDS011;7678;50.058;8.306;2023-04-26T14:23:46;5.30;;;1.80;;
15155;SDS011;7678;50.058;8.306;2023-04-26T14:26:14;5.90;;;2.03;;
15155;SDS011;7678;50.058;8.306;2023-04-26T14:28:44;5.37;;;2.10;;
15155;SDS011;7678;50.058;8.306;2023-04-26T14:31:13;6.20;;;2.57;;
15155;SDS011;7678;50.058;8.306;2023-04-26T14:33:43;5.63;;;2.10;;
15155;SDS011;7678;50.058;8.306;2023-04-26T14:36:11;4.23;;;2.03;;
15155;SDS011;7678;50.058;8.306;2023-04-26T14:38:39;5.30;;;1.97;;
15155;SDS011;7678;50.058;8.306;2023-04-26T14:41:08;4.53;;;1.80;;
15155;SDS011;7678;50.058;8.306;2023-04-26T14:43:41;9.60;;;2.27;;
15155;SDS011;7678;50.058;8.306;2023-04-26T14:46:12;6.73;;;1.80;;
15155;SDS011;7678;50.058;8.306;2023-04-26T14:48:41;4.47;;;1.73;;
15155;SDS011;7678;50.058;8.306;2023-04-26T14:51:10;5.47;;;1.93;;
15155;SDS011;7678;50.058;8.306;2023-04-26T14:53:38;5.53;;;1.80;;
15155;SDS011;7678;50.058;8.306;2023-04-26T14:56:06;3.97;;;1.80;;
15155;SDS011;7678;50.058;8.306;2023-04-26T14:58:34;4.13;;;1.80;;
15155;SDS011;7678;50.058;8.306;2023-04-26T15:01:02;5.50;;;1.80;;
15155;SDS011;7678;50.058;8.306;2023-04-26T15:03:32;4.63;;;1.60;;
15155;SDS011;7678;50.058;8.306;2023-04-26T15:06:01;8.30;;;2.37;;
15155;SDS011;7678;50.058;8.306;2023-04-26T15:08:29;8.47;;;2.10;;
15155;SDS011;7678;50.058;8.306;2023-04-26T15:10:57;3.03;;;1.50;;
15155;SDS011;7678;50.058;8.306;2023-04-26T15:13:25;5.53;;;2.00;;
15155;SDS011;7678;50.058;8.306;2023-04-26T15:15:53;3.57;;;1.90;;
15155;SDS011;7678;50.058;8.306;2023-04-26T15:18:21;3.30;;;1.60;;
15155;SDS011;7678;50.058;8.306;2023-04-26T15:20:50;4.97;;;1.80;;
15155;SDS011;7678;50.058;8.306;2023-04-26T15:23:18;6.00;;;2.10;;